sensor_id;sensor_type;location;lat;lon;timestamp;temperature;humidity
20560;DHT22;10438;51.454;6.718;2023-07-29T00:01:59;18.90;99.90
20560;DHT22;10438;51.454;6.718;2023-07-29T00:04:25;18.90;99.90
20560;DHT22;10438;51.454;6.718;2023-07-29T00:06:50;18.90;99.90
20560;DHT22;10438;51.454;6.718;2023-07-29T00:09:16;18.90;99.90
20560;DHT22;10438;51.454;6.718;2023-07-29T00:11:41;18.90;99.90
20560;DHT22;10438;51.454;6.718;2023-07-29T00:14:07;18.90;99.90
20560;DHT22;10438;51.454;6.718;2023-07-29T00:16:32;19.00;99.90
20560;DHT22;10438;51.454;6.718;2023-07-29T00:18:58;19.00;99.90
20560;DHT22;10438;51.454;6.718;2023-07-29T00:21:23;19.00;99.90
20560;DHT22;10438;51.454;6.718;2023-07-29T00:23:49;18.90;99.90
20560;DHT22;10438;51.454;6.718;2023-07-29T00:26:14;18.90;99.90
20560;DHT22;10438;51.454;6.718;2023-07-29T00:28:40;19.00;99.90
20560;DHT22;10438;51.454;6.718;2023-07-29T00:31:06;19.00;99.90
20560;DHT22;10438;51.454;6.718;2023-07-29T00:33:31;19.00;99.90
20560;DHT22;10438;51.454;6.718;2023-07-29T00:35:57;19.10;99.90
20560;DHT22;10438;51.454;6.718;2023-07-29T00:38:27;19.10;99.90
20560;DHT22;10438;51.454;6.718;2023-07-29T00:40:52;19.10;99.90
20560;DHT22;10438;51.454;6.718;2023-07-29T00:43:18;19.20;99.90
20560;DHT22;10438;51.454;6.718;2023-07-29T00:45:44;19.10;99.90
20560;DHT22;10438;51.454;6.718;2023-07-29T00:48:10;19.20;99.90
20560;DHT22;10438;51.454;6.718;2023-07-29T00:50:35;19.20;99.90
20560;DHT22;10438;51.454;6.718;2023-07-29T00:53:01;19.10;99.90
20560;DHT22;10438;51.454;6.718;2023-07-29T00:55:27;19.20;99.90
20560;DHT22;10438;51.454;6.718;2023-07-29T00:57:54;19.20;99.90
20560;DHT22;10438;51.454;6.718;2023-07-29T01:00:20;19.20;99.90
20560;DHT22;10438;51.454;6.718;2023-07-29T01:02:46;19.30;99.90
20560;DHT22;10438;51.454;6.718;2023-07-29T01:05:14;19.30;99.90
20560;DHT22;10438;51.454;6.718;2023-07-29T01:10:30;19.30;99.90
20560;DHT22;10438;51.454;6.718;2023-07-29T01:13:10;19.40;99.90
20560;DHT22;10438;51.454;6.718;2023-07-29T01:16:08;19.40;99.90
20560;DHT22;10438;51.454;6.718;2023-07-29T01:18:32;19.30;99.90
20560;DHT22;10438;51.454;6.718;2023-07-29T01:21:02;19.40;99.90
20560;DHT22;10438;51.454;6.718;2023-07-29T01:23:32;19.30;99.90
20560;DHT22;10438;51.454;6.718;2023-07-29T01:25:58;19.40;99.90
20560;DHT22;10438;51.454;6.718;2023-07-29T01:28:25;19.30;99.90
20560;DHT22;10438;51.454;6.718;2023-07-29T01:30:52;19.30;99.90
20560;DHT22;10438;51.454;6.718;2023-07-29T01:33:35;19.30;99.90
20560;DHT22;10438;51.454;6.718;2023-07-29T01:36:15;19.30;99.90
20560;DHT22;10438;51.454;6.718;2023-07-29T01:38:44;19.30;99.90
20560;DHT22;10438;51.454;6.718;2023-07-29T01:41:10;19.40;99.90
20560;DHT22;10438;51.454;6.718;2023-07-29T01:43:37;19.40;99.90
20560;DHT22;10438;51.454;6.718;2023-07-29T01:46:13;19.40;99.90
20560;DHT22;10438;51.454;6.718;2023-07-29T01:48:39;19.40;99.90
20560;DHT22;10438;51.454;6.718;2023-07-29T01:51:05;19.40;99.90
20560;DHT22;10438;51.454;6.718;2023-07-29T01:53:31;19.40;99.90
20560;DHT22;10438;51.454;6.718;2023-07-29T01:55:57;19.40;99.90
20560;DHT22;10438;51.454;6.718;2023-07-29T01:58:22;19.40;99.90
20560;DHT22;10438;51.454;6.718;2023-07-29T02:00:48;19.40;99.90
20560;DHT22;10438;51.454;6.718;2023-07-29T02:03:14;19.40;99.90
20560;DHT22;10438;51.454;6.718;2023-07-29T02:05:39;19.40;99.90
20560;DHT22;10438;51.454;6.718;2023-07-29T02:08:05;19.50;99.90
20560;DHT22;10438;51.454;6.718;2023-07-29T02:10:31;19.50;99.90
20560;DHT22;10438;51.454;6.718;2023-07-29T02:12:56;19.50;99.90
20560;DHT22;10438;51.454;6.718;2023-07-29T02:15:22;19.50;99.90
20560;DHT22;10438;51.454;6.718;2023-07-29T02:17:50;19.40;99.90
20560;DHT22;10438;51.454;6.718;2023-07-29T02:20:15;19.40;99.90
20560;DHT22;10438;51.454;6.718;2023-07-29T02:22:41;19.40;99.90
20560;DHT22;10438;51.454;6.718;2023-07-29T02:25:06;19.40;99.90
20560;DHT22;10438;51.454;6.718;2023-07-29T02:27:32;19.40;99.90
20560;DHT22;10438;51.454;6.718;2023-07-29T02:29:58;19.40;99.90
20560;DHT22;10438;51.454;6.718;2023-07-29T02:32:24;19.40;99.90
20560;DHT22;10438;51.454;6.718;2023-07-29T02:34:49;19.40;99.90
20560;DHT22;10438;51.454;6.718;2023-07-29T02:37:15;19.40;99.90
20560;DHT22;10438;51.454;6.718;2023-07-29T02:39:40;19.40;99.90
20560;DHT22;10438;51.454;6.718;2023-07-29T02:42:06;19.40;99.90
20560;DHT22;10438;51.454;6.718;2023-07-29T02:44:31;19.30;99.90
20560;DHT22;10438;51.454;6.718;2023-07-29T02:46:57;19.40;99.90
20560;DHT22;10438;51.454;6.718;2023-07-29T02:49:23;19.30;99.90
20560;DHT22;10438;51.454;6.718;2023-07-29T02:51:49;19.30;99.90
20560;DHT22;10438;51.454;6.718;2023-07-29T02:54:14;19.30;99.90
20560;DHT22;10438;51.454;6.718;2023-07-29T02:56:40;19.40;99.90
20560;DHT22;10438;51.454;6.718;2023-07-29T02:59:05;19.40;99.90
20560;DHT22;10438;51.454;6.718;2023-07-29T03:01:31;19.30;99.90
20560;DHT22;10438;51.454;6.718;2023-07-29T03:03:57;19.30;99.90
20560;DHT22;10438;51.454;6.718;2023-07-29T03:06:23;19.30;99.90
20560;DHT22;10438;51.454;6.718;2023-07-29T03:08:49;19.30;99.90
20560;DHT22;10438;51.454;6.718;2023-07-29T03:11:16;19.20;99.90
20560;DHT22;10438;51.454;6.718;2023-07-29T03:13:42;19.20;99.90
20560;DHT22;10438;51.454;6.718;2023-07-29T03:16:12;19.30;99.90
20560;DHT22;10438;51.454;6.718;2023-07-29T03:18:39;19.20;99.90
20560;DHT22;10438;51.454;6.718;2023-07-29T03:21:05;19.20;99.90
20560;DHT22;10438;51.454;6.718;2023-07-29T03:23:31;19.10;99.90
20560;DHT22;10438;51.454;6.718;2023-07-29T03:25:58;19.10;99.90
20560;DHT22;10438;51.454;6.718;2023-07-29T03:28:29;19.10;99.90
20560;DHT22;10438;51.454;6.718;2023-07-29T03:30:56;19.00;99.90
20560;DHT22;10438;51.454;6.718;2023-07-29T03:33:22;19.00;99.90
20560;DHT22;10438;51.454;6.718;2023-07-29T03:35:48;19.00;99.90
20560;DHT22;10438;51.454;6.718;2023-07-29T03:38:14;19.00;99.90
20560;DHT22;10438;51.454;6.718;2023-07-29T03:40:40;19.00;99.90
20560;DHT22;10438;51.454;6.718;2023-07-29T03:43:06;18.90;99.90
20560;DHT22;10438;51.454;6.718;2023-07-29T03:45:32;18.90;99.90
20560;DHT22;10438;51.454;6.718;2023-07-29T03:47:57;18.90;99.90
20560;DHT22;10438;51.454;6.718;2023-07-29T03:50:23;18.90;99.90
20560;DHT22;10438;51.454;6.718;2023-07-29T03:52:49;18.80;99.90
20560;DHT22;10438;51.454;6.718;2023-07-29T03:55:15;18.70;99.90
20560;DHT22;10438;51.454;6.718;2023-07-29T03:57:41;18.80;99.90
20560;DHT22;10438;51.454;6.718;2023-07-29T04:00:06;18.70;99.90
20560;DHT22;10438;51.454;6.718;2023-07-29T04:02:32;18.70;99.90
20560;DHT22;10438;51.454;6.718;2023-07-29T04:04:58;18.60;99.90
20560;DHT22;10438;51.454;6.718;2023-07-29T04:07:23;18.60;99.90
20560;DHT22;10438;51.454;6.718;2023-07-29T04:09:49;18.60;99.90
20560;DHT22;10438;51.454;6.718;2023-07-29T04:12:15;18.50;99.90
20560;DHT22;10438;51.454;6.718;2023-07-29T04:14:41;18.50;99.90
20560;DHT22;10438;51.454;6.718;2023-07-29T04:17:07;18.50;99.90
20560;DHT22;10438;51.454;6.718;2023-07-29T04:19:33;18.50;99.90
20560;DHT22;10438;51.454;6.718;2023-07-29T04:21:58;18.50;99.90
20560;DHT22;10438;51.454;6.718;2023-07-29T04:24:24;18.50;99.90
20560;DHT22;10438;51.454;6.718;2023-07-29T04:26:49;18.50;99.90
20560;DHT22;10438;51.454;6.718;2023-07-29T04:29:15;18.50;99.90
20560;DHT22;10438;51.454;6.718;2023-07-29T04:31:40;18.50;99.90
20560;DHT22;10438;51.454;6.718;2023-07-29T04:34:06;18.40;99.90
20560;DHT22;10438;51.454;6.718;2023-07-29T04:36:31;18.40;99.90
20560;DHT22;10438;51.454;6.718;2023-07-29T04:38:57;18.40;99.90
20560;DHT22;10438;51.454;6.718;2023-07-29T04:41:23;18.40;99.90
20560;DHT22;10438;51.454;6.718;2023-07-29T04:43:48;18.40;99.90
20560;DHT22;10438;51.454;6.718;2023-07-29T04:46:15;18.40;99.90
20560;DHT22;10438;51.454;6.718;2023-07-29T04:48:40;18.40;99.90
20560;DHT22;10438;51.454;6.718;2023-07-29T04:51:06;18.40;99.90
20560;DHT22;10438;51.454;6.718;2023-07-29T04:53:31;18.50;99.90
20560;DHT22;10438;51.454;6.718;2023-07-29T04:55:57;18.40;99.90
20560;DHT22;10438;51.454;6.718;2023-07-29T04:58:22;18.40;99.90
20560;DHT22;10438;51.454;6.718;2023-07-29T05:00:48;18.40;99.90
20560;DHT22;10438;51.454;6.718;2023-07-29T05:03:13;18.40;99.90
20560;DHT22;10438;51.454;6.718;2023-07-29T05:05:39;18.40;99.90
20560;DHT22;10438;51.454;6.718;2023-07-29T05:08:04;18.40;99.90
20560;DHT22;10438;51.454;6.718;2023-07-29T05:10:30;18.40;99.90
20560;DHT22;10438;51.454;6.718;2023-07-29T05:12:55;18.30;99.90
20560;DHT22;10438;51.454;6.718;2023-07-29T05:15:21;18.30;99.90
20560;DHT22;10438;51.454;6.718;2023-07-29T05:17:46;18.30;99.90
20560;DHT22;10438;51.454;6.718;2023-07-29T05:20:12;18.30;99.90
20560;DHT22;10438;51.454;6.718;2023-07-29T05:22:37;18.30;99.90
20560;DHT22;10438;51.454;6.718;2023-07-29T05:25:03;18.30;99.90
20560;DHT22;10438;51.454;6.718;2023-07-29T05:27:29;18.30;99.90
20560;DHT22;10438;51.454;6.718;2023-07-29T05:29:54;18.30;99.90
20560;DHT22;10438;51.454;6.718;2023-07-29T05:32:20;18.40;99.90
20560;DHT22;10438;51.454;6.718;2023-07-29T05:34:45;18.40;99.90
20560;DHT22;10438;51.454;6.718;2023-07-29T05:37:11;18.40;99.90
20560;DHT22;10438;51.454;6.718;2023-07-29T05:39:36;18.50;99.90
20560;DHT22;10438;51.454;6.718;2023-07-29T05:42:03;18.50;99.90
20560;DHT22;10438;51.454;6.718;2023-07-29T05:44:29;18.50;99.90
20560;DHT22;10438;51.454;6.718;2023-07-29T05:46:57;18.50;99.90
20560;DHT22;10438;51.454;6.718;2023-07-29T05:49:23;18.50;99.90
20560;DHT22;10438;51.454;6.718;2023-07-29T05:51:49;18.50;99.90
20560;DHT22;10438;51.454;6.718;2023-07-29T05:54:17;18.50;99.90
20560;DHT22;10438;51.454;6.718;2023-07-29T05:56:42;18.50;99.90
20560;DHT22;10438;51.454;6.718;2023-07-29T05:59:08;18.50;99.90
20560;DHT22;10438;51.454;6.718;2023-07-29T06:01:33;18.50;99.90
20560;DHT22;10438;51.454;6.718;2023-07-29T06:04:00;18.40;99.90
20560;DHT22;10438;51.454;6.718;2023-07-29T06:06:25;18.40;99.90
20560;DHT22;10438;51.454;6.718;2023-07-29T06:08:51;18.50;99.90
20560;DHT22;10438;51.454;6.718;2023-07-29T06:11:17;18.50;99.90
20560;DHT22;10438;51.454;6.718;2023-07-29T06:13:42;18.50;99.90
20560;DHT22;10438;51.454;6.718;2023-07-29T06:16:08;18.60;99.90
20560;DHT22;10438;51.454;6.718;2023-07-29T06:18:33;18.60;99.90
20560;DHT22;10438;51.454;6.718;2023-07-29T06:20:59;18.60;99.90
20560;DHT22;10438;51.454;6.718;2023-07-29T06:23:24;18.60;99.90
20560;DHT22;10438;51.454;6.718;2023-07-29T06:25:50;18.50;99.90
20560;DHT22;10438;51.454;6.718;2023-07-29T06:28:15;18.50;99.90
20560;DHT22;10438;51.454;6.718;2023-07-29T06:30:41;18.50;99.90
20560;DHT22;10438;51.454;6.718;2023-07-29T06:33:06;18.40;99.90
20560;DHT22;10438;51.454;6.718;2023-07-29T06:35:32;18.40;99.90
20560;DHT22;10438;51.454;6.718;2023-07-29T06:37:57;18.50;99.90
20560;DHT22;10438;51.454;6.718;2023-07-29T06:40:23;18.40;99.90
20560;DHT22;10438;51.454;6.718;2023-07-29T06:42:48;18.50;99.90
20560;DHT22;10438;51.454;6.718;2023-07-29T06:45:14;18.50;99.90
20560;DHT22;10438;51.454;6.718;2023-07-29T06:47:41;18.60;99.90
20560;DHT22;10438;51.454;6.718;2023-07-29T06:50:06;18.60;99.90
20560;DHT22;10438;51.454;6.718;2023-07-29T06:52:32;18.70;99.90
20560;DHT22;10438;51.454;6.718;2023-07-29T06:54:58;18.80;99.90
20560;DHT22;10438;51.454;6.718;2023-07-29T06:57:23;18.90;99.90
20560;DHT22;10438;51.454;6.718;2023-07-29T06:59:49;19.00;99.90
20560;DHT22;10438;51.454;6.718;2023-07-29T07:02:14;19.10;99.90
20560;DHT22;10438;51.454;6.718;2023-07-29T07:04:40;19.20;99.90
20560;DHT22;10438;51.454;6.718;2023-07-29T07:07:06;19.20;99.90
20560;DHT22;10438;51.454;6.718;2023-07-29T07:09:31;19.20;99.90
20560;DHT22;10438;51.454;6.718;2023-07-29T07:11:57;19.20;99.90
20560;DHT22;10438;51.454;6.718;2023-07-29T07:14:22;19.30;99.90
20560;DHT22;10438;51.454;6.718;2023-07-29T07:16:48;19.40;99.90
20560;DHT22;10438;51.454;6.718;2023-07-29T07:19:13;19.40;99.90
20560;DHT22;10438;51.454;6.718;2023-07-29T07:21:39;19.50;99.90
20560;DHT22;10438;51.454;6.718;2023-07-29T07:24:04;19.40;99.90
20560;DHT22;10438;51.454;6.718;2023-07-29T07:26:30;19.40;99.90
20560;DHT22;10438;51.454;6.718;2023-07-29T07:28:55;19.30;99.90
20560;DHT22;10438;51.454;6.718;2023-07-29T07:31:22;19.30;99.90
20560;DHT22;10438;51.454;6.718;2023-07-29T07:33:47;19.30;99.90
20560;DHT22;10438;51.454;6.718;2023-07-29T07:36:13;19.50;99.90
20560;DHT22;10438;51.454;6.718;2023-07-29T07:38:39;19.60;99.90
20560;DHT22;10438;51.454;6.718;2023-07-29T07:41:04;19.70;99.90
20560;DHT22;10438;51.454;6.718;2023-07-29T07:43:30;19.70;99.90
20560;DHT22;10438;51.454;6.718;2023-07-29T07:45:59;19.80;99.90
20560;DHT22;10438;51.454;6.718;2023-07-29T07:48:26;19.90;99.90
20560;DHT22;10438;51.454;6.718;2023-07-29T07:50:51;20.00;99.90
20560;DHT22;10438;51.454;6.718;2023-07-29T07:53:17;20.00;99.90
20560;DHT22;10438;51.454;6.718;2023-07-29T07:55:42;20.10;99.90
20560;DHT22;10438;51.454;6.718;2023-07-29T07:58:08;20.20;99.90
20560;DHT22;10438;51.454;6.718;2023-07-29T08:00:33;20.30;99.90
20560;DHT22;10438;51.454;6.718;2023-07-29T08:02:59;20.40;99.90
20560;DHT22;10438;51.454;6.718;2023-07-29T08:05:24;20.60;99.90
20560;DHT22;10438;51.454;6.718;2023-07-29T08:07:50;20.40;99.90
20560;DHT22;10438;51.454;6.718;2023-07-29T08:10:15;20.40;99.90
20560;DHT22;10438;51.454;6.718;2023-07-29T08:12:41;20.60;99.90
20560;DHT22;10438;51.454;6.718;2023-07-29T08:15:07;20.70;99.90
20560;DHT22;10438;51.454;6.718;2023-07-29T08:17:33;20.70;99.90
20560;DHT22;10438;51.454;6.718;2023-07-29T08:19:59;20.60;99.90
20560;DHT22;10438;51.454;6.718;2023-07-29T08:22:24;20.60;99.90
20560;DHT22;10438;51.454;6.718;2023-07-29T08:24:49;20.60;99.90
20560;DHT22;10438;51.454;6.718;2023-07-29T08:27:15;20.60;99.90
20560;DHT22;10438;51.454;6.718;2023-07-29T08:29:40;20.90;99.90
20560;DHT22;10438;51.454;6.718;2023-07-29T08:32:07;21.20;99.90
20560;DHT22;10438;51.454;6.718;2023-07-29T08:34:32;21.20;99.90
20560;DHT22;10438;51.454;6.718;2023-07-29T08:36:58;21.20;99.90
20560;DHT22;10438;51.454;6.718;2023-07-29T08:39:23;21.30;99.90
20560;DHT22;10438;51.454;6.718;2023-07-29T08:42:01;21.30;99.90
20560;DHT22;10438;51.454;6.718;2023-07-29T08:44:34;21.40;99.90
20560;DHT22;10438;51.454;6.718;2023-07-29T08:47:01;21.30;99.90
20560;DHT22;10438;51.454;6.718;2023-07-29T08:49:27;21.40;99.90
20560;DHT22;10438;51.454;6.718;2023-07-29T08:51:53;21.30;99.90
20560;DHT22;10438;51.454;6.718;2023-07-29T08:54:20;21.20;99.90
20560;DHT22;10438;51.454;6.718;2023-07-29T08:56:45;21.20;99.90
20560;DHT22;10438;51.454;6.718;2023-07-29T08:59:12;21.30;99.90
20560;DHT22;10438;51.454;6.718;2023-07-29T09:01:38;21.20;99.90
20560;DHT22;10438;51.454;6.718;2023-07-29T09:04:04;21.20;99.90
20560;DHT22;10438;51.454;6.718;2023-07-29T09:06:31;21.10;99.90
20560;DHT22;10438;51.454;6.718;2023-07-29T09:08:58;21.00;99.90
20560;DHT22;10438;51.454;6.718;2023-07-29T09:11:24;21.00;99.90
20560;DHT22;10438;51.454;6.718;2023-07-29T09:13:50;21.00;99.90
20560;DHT22;10438;51.454;6.718;2023-07-29T09:16:16;21.00;99.90
20560;DHT22;10438;51.454;6.718;2023-07-29T09:18:42;20.90;99.90
20560;DHT22;10438;51.454;6.718;2023-07-29T09:21:07;20.80;99.90
20560;DHT22;10438;51.454;6.718;2023-07-29T09:23:43;20.80;99.90
20560;DHT22;10438;51.454;6.718;2023-07-29T09:26:09;20.80;99.90
20560;DHT22;10438;51.454;6.718;2023-07-29T09:28:36;20.70;99.90
20560;DHT22;10438;51.454;6.718;2023-07-29T09:31:02;20.70;99.90
20560;DHT22;10438;51.454;6.718;2023-07-29T09:33:29;20.60;99.90
20560;DHT22;10438;51.454;6.718;2023-07-29T09:35:56;20.50;99.90
20560;DHT22;10438;51.454;6.718;2023-07-29T09:38:28;20.50;99.90
20560;DHT22;10438;51.454;6.718;2023-07-29T09:40:57;20.50;99.90
20560;DHT22;10438;51.454;6.718;2023-07-29T09:43:29;20.50;99.90
20560;DHT22;10438;51.454;6.718;2023-07-29T09:45:55;20.70;99.90
20560;DHT22;10438;51.454;6.718;2023-07-29T09:48:24;20.80;99.90
20560;DHT22;10438;51.454;6.718;2023-07-29T09:50:50;21.00;99.90
20560;DHT22;10438;51.454;6.718;2023-07-29T09:53:15;21.20;99.90
20560;DHT22;10438;51.454;6.718;2023-07-29T09:55:46;21.60;99.90
20560;DHT22;10438;51.454;6.718;2023-07-29T09:58:13;22.00;99.90
20560;DHT22;10438;51.454;6.718;2023-07-29T10:00:39;22.10;99.90
20560;DHT22;10438;51.454;6.718;2023-07-29T10:03:06;22.30;99.90
20560;DHT22;10438;51.454;6.718;2023-07-29T10:05:32;22.50;99.90
20560;DHT22;10438;51.454;6.718;2023-07-29T10:08:00;22.60;99.90
20560;DHT22;10438;51.454;6.718;2023-07-29T10:10:27;22.50;99.90
20560;DHT22;10438;51.454;6.718;2023-07-29T10:12:54;22.40;99.90
20560;DHT22;10438;51.454;6.718;2023-07-29T10:15:20;22.50;99.90
20560;DHT22;10438;51.454;6.718;2023-07-29T10:17:46;22.70;99.90
20560;DHT22;10438;51.454;6.718;2023-07-29T10:20:12;23.00;99.90
20560;DHT22;10438;51.454;6.718;2023-07-29T10:22:40;23.10;99.90
20560;DHT22;10438;51.454;6.718;2023-07-29T10:25:13;23.30;99.90
20560;DHT22;10438;51.454;6.718;2023-07-29T10:27:48;23.20;99.90
20560;DHT22;10438;51.454;6.718;2023-07-29T10:30:14;23.20;99.90
20560;DHT22;10438;51.454;6.718;2023-07-29T10:32:44;23.30;99.90
20560;DHT22;10438;51.454;6.718;2023-07-29T10:35:13;23.00;99.90
20560;DHT22;10438;51.454;6.718;2023-07-29T10:37:39;22.80;99.90
20560;DHT22;10438;51.454;6.718;2023-07-29T10:40:09;22.60;99.90
20560;DHT22;10438;51.454;6.718;2023-07-29T10:42:36;22.60;99.90
20560;DHT22;10438;51.454;6.718;2023-07-29T10:45:21;22.60;99.90
20560;DHT22;10438;51.454;6.718;2023-07-29T10:47:47;22.80;99.90
20560;DHT22;10438;51.454;6.718;2023-07-29T10:50:18;23.40;99.90
20560;DHT22;10438;51.454;6.718;2023-07-29T10:52:51;23.40;99.90
20560;DHT22;10438;51.454;6.718;2023-07-29T10:55:26;23.20;99.90
20560;DHT22;10438;51.454;6.718;2023-07-29T10:57:52;23.00;99.90
20560;DHT22;10438;51.454;6.718;2023-07-29T11:00:19;22.90;99.90
20560;DHT22;10438;51.454;6.718;2023-07-29T11:02:58;22.90;99.90
20560;DHT22;10438;51.454;6.718;2023-07-29T11:05:25;22.70;99.90
20560;DHT22;10438;51.454;6.718;2023-07-29T11:07:51;22.40;99.90
20560;DHT22;10438;51.454;6.718;2023-07-29T11:10:17;22.30;99.90
20560;DHT22;10438;51.454;6.718;2023-07-29T11:12:50;22.20;99.90
20560;DHT22;10438;51.454;6.718;2023-07-29T11:15:22;22.10;99.90
20560;DHT22;10438;51.454;6.718;2023-07-29T11:17:50;22.10;99.90
20560;DHT22;10438;51.454;6.718;2023-07-29T11:20:18;22.00;99.90
20560;DHT22;10438;51.454;6.718;2023-07-29T11:22:45;21.90;99.90
20560;DHT22;10438;51.454;6.718;2023-07-29T11:25:12;21.90;99.90
20560;DHT22;10438;51.454;6.718;2023-07-29T11:27:38;21.90;99.90
20560;DHT22;10438;51.454;6.718;2023-07-29T11:30:06;22.00;99.90
20560;DHT22;10438;51.454;6.718;2023-07-29T11:32:32;22.20;99.90
20560;DHT22;10438;51.454;6.718;2023-07-29T11:35:05;22.40;99.90
20560;DHT22;10438;51.454;6.718;2023-07-29T11:37:32;22.60;99.90
20560;DHT22;10438;51.454;6.718;2023-07-29T11:39:57;22.80;99.90
20560;DHT22;10438;51.454;6.718;2023-07-29T11:42:24;22.90;99.90
20560;DHT22;10438;51.454;6.718;2023-07-29T11:44:49;23.20;99.90
20560;DHT22;10438;51.454;6.718;2023-07-29T11:47:15;23.50;99.90
20560;DHT22;10438;51.454;6.718;2023-07-29T11:49:40;23.60;99.90
20560;DHT22;10438;51.454;6.718;2023-07-29T11:52:10;23.50;99.90
20560;DHT22;10438;51.454;6.718;2023-07-29T11:54:38;23.40;99.90
20560;DHT22;10438;51.454;6.718;2023-07-29T11:57:07;23.30;99.90
20560;DHT22;10438;51.454;6.718;2023-07-29T11:59:34;23.20;99.90
20560;DHT22;10438;51.454;6.718;2023-07-29T12:02:01;23.10;99.90
20560;DHT22;10438;51.454;6.718;2023-07-29T12:04:30;23.40;99.90
20560;DHT22;10438;51.454;6.718;2023-07-29T12:06:56;23.70;99.90
20560;DHT22;10438;51.454;6.718;2023-07-29T12:09:22;23.80;99.90
20560;DHT22;10438;51.454;6.718;2023-07-29T12:11:47;23.80;99.90
20560;DHT22;10438;51.454;6.718;2023-07-29T12:14:13;23.90;99.90
20560;DHT22;10438;51.454;6.718;2023-07-29T12:16:47;23.90;99.90
20560;DHT22;10438;51.454;6.718;2023-07-29T12:19:14;23.70;99.90
20560;DHT22;10438;51.454;6.718;2023-07-29T12:21:41;23.80;99.90
20560;DHT22;10438;51.454;6.718;2023-07-29T12:24:07;24.00;99.90
20560;DHT22;10438;51.454;6.718;2023-07-29T12:26:33;24.20;99.90
20560;DHT22;10438;51.454;6.718;2023-07-29T12:28:58;24.10;99.90
20560;DHT22;10438;51.454;6.718;2023-07-29T12:31:31;23.70;99.90
20560;DHT22;10438;51.454;6.718;2023-07-29T12:33:57;23.70;99.90
20560;DHT22;10438;51.454;6.718;2023-07-29T12:36:39;23.90;99.90
20560;DHT22;10438;51.454;6.718;2023-07-29T12:39:05;24.50;99.90
20560;DHT22;10438;51.454;6.718;2023-07-29T12:41:30;25.00;99.90
20560;DHT22;10438;51.454;6.718;2023-07-29T12:43:56;25.10;99.90
20560;DHT22;10438;51.454;6.718;2023-07-29T12:46:21;25.30;99.90
20560;DHT22;10438;51.454;6.718;2023-07-29T12:48:47;25.40;99.90
20560;DHT22;10438;51.454;6.718;2023-07-29T12:51:12;25.50;99.90
20560;DHT22;10438;51.454;6.718;2023-07-29T12:53:38;25.00;99.90
20560;DHT22;10438;51.454;6.718;2023-07-29T12:56:05;25.10;99.90
20560;DHT22;10438;51.454;6.718;2023-07-29T12:58:31;25.30;99.90
20560;DHT22;10438;51.454;6.718;2023-07-29T13:00:56;25.10;99.90
20560;DHT22;10438;51.454;6.718;2023-07-29T13:03:22;25.20;99.90
20560;DHT22;10438;51.454;6.718;2023-07-29T13:05:47;25.20;99.90
20560;DHT22;10438;51.454;6.718;2023-07-29T13:08:13;24.90;99.90
20560;DHT22;10438;51.454;6.718;2023-07-29T13:10:38;24.70;99.90
20560;DHT22;10438;51.454;6.718;2023-07-29T13:13:04;24.40;99.90
20560;DHT22;10438;51.454;6.718;2023-07-29T13:15:29;24.10;99.90
20560;DHT22;10438;51.454;6.718;2023-07-29T13:17:55;23.80;99.90
20560;DHT22;10438;51.454;6.718;2023-07-29T13:20:20;23.70;99.90
20560;DHT22;10438;51.454;6.718;2023-07-29T13:22:46;23.50;99.90
20560;DHT22;10438;51.454;6.718;2023-07-29T13:25:11;23.30;99.90
20560;DHT22;10438;51.454;6.718;2023-07-29T13:27:37;23.20;99.90
20560;DHT22;10438;51.454;6.718;2023-07-29T13:30:02;23.00;99.90
20560;DHT22;10438;51.454;6.718;2023-07-29T13:32:28;22.90;99.90
20560;DHT22;10438;51.454;6.718;2023-07-29T13:34:53;22.80;99.90
20560;DHT22;10438;51.454;6.718;2023-07-29T13:37:19;22.60;99.90
20560;DHT22;10438;51.454;6.718;2023-07-29T13:39:45;22.50;99.90
20560;DHT22;10438;51.454;6.718;2023-07-29T13:42:10;22.30;99.90
20560;DHT22;10438;51.454;6.718;2023-07-29T13:44:36;22.10;99.90
20560;DHT22;10438;51.454;6.718;2023-07-29T13:47:01;21.80;99.90
20560;DHT22;10438;51.454;6.718;2023-07-29T13:49:27;21.60;99.90
20560;DHT22;10438;51.454;6.718;2023-07-29T13:51:52;21.40;99.90
20560;DHT22;10438;51.454;6.718;2023-07-29T13:54:18;21.10;99.90
20560;DHT22;10438;51.454;6.718;2023-07-29T13:56:43;20.80;99.90
20560;DHT22;10438;51.454;6.718;2023-07-29T13:59:09;20.40;99.90
20560;DHT22;10438;51.454;6.718;2023-07-29T14:01:34;20.10;99.90
20560;DHT22;10438;51.454;6.718;2023-07-29T14:03:59;19.80;99.90
20560;DHT22;10438;51.454;6.718;2023-07-29T14:06:25;19.50;99.90
20560;DHT22;10438;51.454;6.718;2023-07-29T14:08:51;19.20;99.90
20560;DHT22;10438;51.454;6.718;2023-07-29T14:11:16;19.20;99.90
20560;DHT22;10438;51.454;6.718;2023-07-29T14:13:41;19.20;99.90
20560;DHT22;10438;51.454;6.718;2023-07-29T14:16:07;19.40;99.90
20560;DHT22;10438;51.454;6.718;2023-07-29T14:18:33;19.80;99.90
20560;DHT22;10438;51.454;6.718;2023-07-29T14:20:58;20.20;99.90
20560;DHT22;10438;51.454;6.718;2023-07-29T14:23:24;20.50;99.90
20560;DHT22;10438;51.454;6.718;2023-07-29T14:25:49;20.90;99.90
20560;DHT22;10438;51.454;6.718;2023-07-29T14:28:14;21.30;99.90
20560;DHT22;10438;51.454;6.718;2023-07-29T14:30:40;21.90;99.90
20560;DHT22;10438;51.454;6.718;2023-07-29T14:33:06;22.50;99.90
20560;DHT22;10438;51.454;6.718;2023-07-29T14:35:32;23.10;99.90
20560;DHT22;10438;51.454;6.718;2023-07-29T14:37:57;23.50;99.90
20560;DHT22;10438;51.454;6.718;2023-07-29T14:40:23;23.90;99.90
20560;DHT22;10438;51.454;6.718;2023-07-29T14:42:48;23.70;99.90
20560;DHT22;10438;51.454;6.718;2023-07-29T14:45:14;23.30;99.90
20560;DHT22;10438;51.454;6.718;2023-07-29T14:47:39;22.40;99.90
20560;DHT22;10438;51.454;6.718;2023-07-29T14:50:05;22.00;99.90
20560;DHT22;10438;51.454;6.718;2023-07-29T14:52:31;21.50;99.90
20560;DHT22;10438;51.454;6.718;2023-07-29T14:54:56;21.10;99.90
20560;DHT22;10438;51.454;6.718;2023-07-29T14:57:22;20.90;99.90
20560;DHT22;10438;51.454;6.718;2023-07-29T14:59:47;20.50;99.90
20560;DHT22;10438;51.454;6.718;2023-07-29T15:02:13;20.30;99.90
20560;DHT22;10438;51.454;6.718;2023-07-29T15:04:38;20.10;99.90
20560;DHT22;10438;51.454;6.718;2023-07-29T15:07:04;20.00;99.90
20560;DHT22;10438;51.454;6.718;2023-07-29T15:09:30;19.90;99.90
20560;DHT22;10438;51.454;6.718;2023-07-29T15:11:55;19.70;99.90
20560;DHT22;10438;51.454;6.718;2023-07-29T15:14:21;19.70;99.90
20560;DHT22;10438;51.454;6.718;2023-07-29T15:16:46;19.70;99.90
20560;DHT22;10438;51.454;6.718;2023-07-29T15:19:12;19.80;99.90
20560;DHT22;10438;51.454;6.718;2023-07-29T15:21:39;19.80;99.90
20560;DHT22;10438;51.454;6.718;2023-07-29T15:24:05;19.90;99.90
20560;DHT22;10438;51.454;6.718;2023-07-29T15:26:30;20.00;99.90
20560;DHT22;10438;51.454;6.718;2023-07-29T15:28:57;20.00;99.90